createdAt,value
2023-01-26T00:02:21.322Z,41.23
2023-01-26T00:04:51.067Z,41.50
2023-01-26T00:07:20.857Z,42.50
2023-01-26T00:09:50.616Z,44.27
2023-01-26T00:12:20.412Z,40.30
2023-01-26T00:14:50.472Z,41.08
2023-01-26T00:17:23.143Z,40.57
2023-01-26T00:19:59.210Z,39.85
2023-01-26T00:22:29.018Z,39.47
2023-01-26T00:24:58.799Z,39.23
2023-01-26T00:27:28.645Z,40.00
2023-01-26T00:29:58.755Z,40.23
2023-01-26T00:32:28.497Z,42.00
2023-01-26T00:34:58.288Z,38.40
2023-01-26T00:37:28.115Z,44.77
2023-01-26T00:39:58.122Z,38.53
2023-01-26T00:42:28.171Z,38.40
2023-01-26T00:44:59.276Z,41.60
2023-01-26T00:47:29.062Z,36.63
2023-01-26T00:49:59.502Z,39.85
2023-01-26T00:52:31.121Z,39.65
2023-01-26T00:55:00.914Z,38.73
2023-01-26T00:57:30.682Z,42.80
2023-01-26T01:00:00.855Z,39.85
2023-01-26T01:02:30.603Z,39.23
2023-01-26T01:05:00.408Z,40.13
2023-01-26T01:07:30.176Z,39.27
2023-01-26T01:10:00.414Z,40.23
2023-01-26T01:12:30.162Z,39.30
2023-01-26T01:15:00.250Z,38.33
2023-01-26T01:17:30.026Z,35.87
2023-01-26T01:19:59.799Z,35.37
2023-01-26T01:22:29.493Z,37.30
2023-01-26T01:24:59.228Z,36.90
2023-01-26T01:27:29.473Z,37.20
2023-01-26T01:29:59.188Z,35.77
2023-01-26T01:32:28.964Z,36.83
2023-01-26T01:34:59.208Z,37.67
2023-01-26T01:37:30.927Z,36.33
2023-01-26T01:40:00.802Z,37.83
2023-01-26T01:42:30.634Z,36.60
2023-01-26T01:45:29.425Z,40.00
2023-01-26T01:48:02.272Z,38.83
2023-01-26T01:50:35.411Z,38.33
2023-01-26T01:53:06.843Z,36.20
2023-01-26T01:55:37.354Z,36.93
2023-01-26T01:58:09.314Z,37.17
2023-01-26T02:00:39.123Z,36.77
2023-01-26T02:03:15.140Z,35.23
2023-01-26T02:06:17.226Z,36.07
2023-01-26T02:08:50.528Z,36.38
2023-01-26T02:11:35.080Z,34.00
2023-01-26T02:14:10.004Z,36.70
2023-01-26T02:16:42.361Z,37.53
2023-01-26T02:19:15.211Z,37.17
2023-01-26T02:21:48.337Z,36.75
2023-01-26T02:24:29.878Z,36.00
2023-01-26T02:26:59.895Z,34.50
2023-01-26T02:29:30.864Z,36.77
2023-01-26T02:32:00.653Z,35.70
2023-01-26T02:34:30.524Z,35.50
2023-01-26T02:37:02.394Z,36.00
2023-01-26T02:39:50.459Z,37.63
2023-01-26T02:42:38.052Z,34.90
2023-01-26T02:45:12.691Z,35.13
2023-01-26T02:47:44.915Z,37.33
2023-01-26T02:50:16.133Z,36.30
2023-01-26T02:52:46.202Z,36.90
2023-01-26T02:55:22.916Z,35.17
2023-01-26T02:57:55.128Z,35.97
2023-01-26T03:00:31.003Z,32.28
2023-01-26T03:03:02.571Z,37.07
2023-01-26T03:05:32.717Z,34.87
2023-01-26T03:08:04.203Z,32.00
2023-01-26T03:10:36.011Z,33.67
2023-01-26T03:13:05.953Z,35.43
2023-01-26T03:15:37.538Z,35.13
2023-01-26T03:18:29.483Z,36.03
2023-01-26T03:21:19.300Z,33.87
2023-01-26T03:24:07.234Z,32.17
2023-01-26T03:26:55.095Z,32.58
2023-01-26T03:29:24.775Z,31.23
2023-01-26T03:31:56.195Z,31.43
2023-01-26T03:34:26.208Z,32.57
2023-01-26T03:36:56.202Z,32.33
2023-01-26T03:39:43.929Z,31.27
2023-01-26T03:42:31.688Z,30.80
2023-01-26T03:45:19.902Z,30.92
2023-01-26T03:48:08.251Z,30.30
2023-01-26T03:50:55.634Z,29.13
2023-01-26T03:53:43.254Z,29.87
2023-01-26T03:56:20.783Z,28.43
2023-01-26T03:58:54.572Z,29.20
2023-01-26T04:01:29.178Z,28.10
2023-01-26T04:04:18.131Z,29.10
2023-01-26T04:07:08.605Z,28.43
2023-01-26T04:09:40.165Z,28.97
2023-01-26T04:12:14.067Z,26.73
2023-01-26T04:15:05.787Z,26.13
2023-01-26T04:17:53.888Z,24.90
2023-01-26T04:20:41.064Z,24.20
2023-01-26T04:23:19.137Z,24.57
2023-01-26T04:25:50.453Z,23.27
2023-01-26T04:28:20.759Z,24.50
2023-01-26T04:30:51.716Z,23.60
2023-01-26T04:33:21.887Z,27.85
2023-01-26T04:35:51.398Z,26.15
2023-01-26T04:38:22.134Z,26.53
2023-01-26T04:40:55.272Z,24.80
2023-01-26T04:43:25.564Z,26.33
2023-01-26T04:46:04.234Z,24.13
2023-01-26T04:48:34.253Z,25.20
2023-01-26T04:51:13.005Z,25.03
2023-01-26T04:53:43.326Z,25.57
2023-01-26T04:56:28.783Z,24.50
2023-01-26T04:59:05.367Z,23.47
2023-01-26T05:01:35.916Z,23.35
2023-01-26T05:04:09.599Z,24.03
2023-01-26T05:06:42.164Z,23.23
2023-01-26T05:09:12.351Z,22.33
2023-01-26T05:11:44.218Z,25.85
2023-01-26T05:14:30.744Z,23.50
2023-01-26T05:17:04.891Z,22.50
2023-01-26T05:19:51.665Z,22.30
2023-01-26T05:22:41.810Z,23.10
2023-01-26T05:25:24.684Z,22.13
2023-01-26T05:27:56.227Z,21.83
2023-01-26T05:30:26.548Z,22.67
2023-01-26T05:33:04.970Z,21.73
2023-01-26T05:35:35.704Z,21.17
2023-01-26T05:38:08.846Z,22.93
2023-01-26T05:40:38.733Z,21.20
2023-01-26T05:43:11.079Z,20.30
2023-01-26T05:45:43.019Z,21.68
2023-01-26T05:48:13.866Z,20.70
2023-01-26T05:50:43.861Z,22.60
2023-01-26T05:53:15.297Z,20.27
2023-01-26T05:55:45.427Z,22.50
2023-01-26T05:58:16.749Z,22.05
2023-01-26T06:00:46.586Z,21.53
2023-01-26T06:03:18.140Z,20.63
2023-01-26T06:05:54.442Z,19.60
2023-01-26T06:08:25.929Z,20.17
2023-01-26T06:11:02.696Z,20.70
2023-01-26T06:13:49.346Z,21.37
2023-01-26T06:16:21.008Z,21.17
2023-01-26T06:18:51.474Z,20.33
2023-01-26T06:21:21.959Z,20.30
2023-01-26T06:23:53.721Z,19.80
2023-01-26T06:26:24.500Z,19.33
2023-01-26T06:28:55.842Z,19.40
2023-01-26T06:31:28.729Z,21.80
2023-01-26T06:33:59.818Z,19.65
2023-01-26T06:36:29.463Z,19.23
2023-01-26T06:39:00.931Z,18.70
2023-01-26T06:41:31.183Z,18.62
2023-01-26T06:44:01.003Z,20.70
2023-01-26T06:46:31.602Z,21.23
2023-01-26T06:49:03.688Z,20.60
2023-01-26T06:51:40.763Z,20.10
2023-01-26T06:54:15.075Z,19.40
2023-01-26T06:57:04.586Z,21.77
2023-01-26T07:02:23.865Z,22.75
2023-01-26T07:04:53.996Z,21.50
2023-01-26T07:07:24.038Z,23.57
2023-01-26T07:09:54.132Z,23.10
2023-01-26T07:12:24.042Z,24.37
2023-01-26T07:14:54.107Z,21.95
2023-01-26T07:17:23.958Z,23.77
2023-01-26T07:19:53.820Z,23.60
2023-01-26T07:22:23.293Z,24.47
2023-01-26T07:24:53.918Z,23.53
2023-01-26T07:27:23.705Z,24.37
2023-01-26T07:29:53.477Z,24.27
2023-01-26T07:32:23.385Z,23.03
2023-01-26T07:34:53.482Z,24.05
2023-01-26T07:37:23.212Z,24.37
2023-01-26T07:39:52.984Z,24.47
2023-01-26T07:42:22.783Z,22.93
2023-01-26T07:44:57.278Z,22.93
2023-01-26T07:47:27.226Z,24.03
2023-01-26T07:49:57.084Z,23.97
2023-01-26T07:52:26.840Z,23.67
2023-01-26T07:54:57.025Z,24.12
2023-01-26T07:57:26.884Z,24.47
2023-01-26T07:59:57.050Z,24.02
2023-01-26T08:02:27.042Z,23.90
2023-01-26T08:04:57.082Z,23.02
2023-01-26T08:07:27.401Z,23.50
2023-01-26T08:09:58.974Z,23.47
2023-01-26T08:12:29.084Z,25.17
2023-01-26T08:14:59.182Z,21.20
2023-01-26T08:17:34.482Z,22.63
2023-01-26T08:20:04.477Z,23.20
2023-01-26T08:22:34.635Z,22.55
2023-01-26T08:25:04.813Z,23.25
2023-01-26T08:27:34.883Z,22.45
2023-01-26T08:30:06.709Z,23.07
2023-01-26T08:32:36.480Z,22.30
2023-01-26T08:35:08.470Z,22.42
2023-01-26T08:37:38.923Z,23.30
2023-01-26T08:40:09.551Z,21.60
2023-01-26T08:42:39.783Z,23.75
2023-01-26T08:45:09.800Z,24.63
2023-01-26T08:47:39.948Z,23.85
2023-01-26T08:50:11.258Z,23.47
2023-01-26T08:52:41.453Z,22.90
2023-01-26T08:55:11.358Z,24.60
2023-01-26T08:57:41.703Z,25.50
2023-01-26T09:00:14.199Z,23.60
2023-01-26T09:02:44.349Z,24.73
2023-01-26T09:05:13.923Z,24.23
2023-01-26T09:07:44.562Z,25.23
2023-01-26T09:10:14.719Z,23.32
2023-01-26T09:12:45.062Z,24.63
2023-01-26T09:15:14.535Z,24.65
2023-01-26T09:17:44.385Z,24.53
2023-01-26T09:20:14.070Z,22.98
2023-01-26T09:22:44.107Z,24.23
2023-01-26T09:25:13.942Z,25.17
2023-01-26T09:27:44.558Z,25.47
2023-01-26T09:30:14.746Z,25.12
2023-01-26T09:32:45.210Z,26.40
2023-01-26T09:35:15.416Z,24.10
2023-01-26T09:37:45.773Z,26.17
2023-01-26T09:40:19.810Z,25.17
2023-01-26T09:42:58.519Z,24.43
2023-01-26T09:45:34.125Z,23.75
2023-01-26T09:48:29.704Z,23.67
2023-01-26T09:51:02.537Z,25.40
2023-01-26T09:53:47.367Z,26.00
2023-01-26T09:56:21.016Z,26.27
2023-01-26T09:58:57.303Z,26.07
2023-01-26T10:04:30.047Z,25.82
2023-01-26T10:07:01.837Z,26.07
2023-01-26T10:09:53.577Z,24.90
2023-01-26T10:12:35.322Z,25.30
2023-01-26T10:15:21.880Z,26.40
2023-01-26T10:17:54.859Z,29.33
2023-01-26T10:20:36.149Z,27.33
2023-01-26T10:23:17.231Z,26.53
2023-01-26T10:25:51.655Z,25.50
2023-01-26T10:28:35.138Z,25.55
2023-01-26T10:31:08.351Z,25.57
2023-01-26T10:33:39.122Z,24.20
2023-01-26T10:36:11.240Z,26.10
2023-01-26T10:38:43.101Z,25.17
2023-01-26T10:41:24.885Z,23.57
2023-01-26T10:44:00.826Z,25.80
2023-01-26T10:46:34.125Z,25.57
2023-01-26T10:49:13.073Z,24.82
2023-01-26T10:51:46.349Z,25.27
2023-01-26T10:54:22.508Z,24.65
2023-01-26T10:57:00.417Z,23.33
2023-01-26T10:59:43.573Z,22.93
2023-01-26T11:02:19.317Z,22.03
2023-01-26T11:05:11.918Z,22.55
2023-01-26T11:07:44.271Z,21.30
2023-01-26T11:10:33.294Z,21.57
2023-01-26T11:13:19.250Z,22.40
2023-01-26T11:16:03.367Z,20.53
2023-01-26T11:19:00.562Z,21.45
2023-01-26T11:21:33.708Z,20.35
2023-01-26T11:24:12.711Z,20.05
2023-01-26T11:27:07.951Z,20.20
2023-01-26T11:29:57.131Z,21.27
2023-01-26T11:32:48.378Z,17.87
2023-01-26T11:35:35.430Z,16.55
2023-01-26T11:38:09.562Z,17.90
2023-01-26T11:41:00.276Z,17.63
2023-01-26T11:43:38.931Z,17.30
2023-01-26T11:46:28.116Z,15.65
2023-01-26T11:49:20.212Z,15.03
2023-01-26T11:52:01.451Z,14.90
2023-01-26T11:55:04.034Z,12.90
2023-01-26T11:57:45.669Z,12.23
2023-01-26T12:00:29.414Z,10.60
2023-01-26T12:02:56.951Z,12.37
2023-01-26T12:08:02.923Z,9.63
2023-01-26T12:10:35.414Z,9.70
2023-01-26T12:13:16.943Z,9.00
2023-01-26T12:15:52.265Z,9.40
2023-01-26T12:18:42.161Z,8.67
2023-01-26T12:21:06.144Z,8.40
2023-01-26T12:26:18.226Z,7.80
2023-01-26T12:29:18.130Z,7.67
2023-01-26T12:31:50.722Z,7.05
2023-01-26T12:34:23.554Z,7.47
2023-01-26T12:37:18.625Z,6.85
2023-01-26T12:40:21.094Z,6.73
2023-01-26T12:43:02.391Z,6.33
2023-01-26T12:45:35.247Z,5.83
2023-01-26T12:48:23.175Z,6.58
2023-01-26T12:50:55.999Z,6.37
2023-01-26T12:53:32.408Z,5.27
2023-01-26T12:56:14.020Z,5.83
2023-01-26T12:58:46.694Z,5.40
2023-01-26T13:01:22.145Z,5.00
2023-01-26T13:04:00.968Z,5.47
2023-01-26T13:06:31.285Z,5.30
2023-01-26T13:09:22.367Z,4.62
2023-01-26T13:11:59.881Z,5.47
2023-01-26T13:14:38.431Z,4.28
2023-01-26T13:17:20.498Z,3.62
2023-01-26T13:19:53.325Z,4.00
2023-01-26T13:22:30.588Z,3.57
2023-01-26T13:25:19.509Z,3.70
2023-01-26T13:27:52.361Z,3.53
2023-01-26T13:30:30.833Z,3.65
2023-01-26T13:33:24.504Z,3.53
2023-01-26T13:35:56.466Z,3.10
2023-01-26T13:38:31.723Z,3.73
2023-01-26T13:41:02.864Z,2.57
2023-01-26T13:43:44.716Z,2.40
2023-01-26T13:46:33.709Z,3.00
2023-01-26T13:49:03.237Z,2.60
2023-01-26T13:51:35.918Z,2.40
2023-01-26T13:54:17.859Z,2.37
2023-01-26T13:57:07.532Z,2.40
2023-01-26T13:59:51.503Z,3.33
2023-01-26T14:02:35.864Z,2.90
2023-01-26T14:05:08.533Z,2.22
2023-01-26T14:07:43.573Z,2.07
2023-01-26T14:10:23.270Z,2.27
2023-01-26T14:12:57.213Z,1.93
2023-01-26T14:15:29.932Z,2.10
2023-01-26T14:18:05.275Z,2.60
2023-01-26T14:20:37.947Z,2.03
2023-01-26T14:23:19.109Z,2.20
2023-01-26T14:25:51.947Z,2.07
2023-01-26T14:28:24.138Z,2.37
2023-01-26T14:30:59.898Z,1.53
2023-01-26T14:33:30.878Z,1.60
2023-01-26T14:36:02.895Z,2.55
2023-01-26T14:38:44.570Z,2.27
2023-01-26T14:41:34.360Z,1.83
2023-01-26T14:44:07.339Z,1.70
2023-01-26T14:46:40.513Z,1.70
2023-01-26T14:49:15.862Z,2.37
2023-01-26T14:51:47.768Z,2.10
2023-01-26T14:54:23.636Z,2.15
2023-01-26T14:56:53.484Z,1.73
2023-01-26T14:59:26.547Z,1.67
2023-01-26T15:02:25.596Z,1.25
2023-01-26T15:04:58.350Z,1.50
2023-01-26T15:07:45.844Z,1.33
2023-01-26T15:10:41.155Z,1.38
2023-01-26T15:13:19.793Z,1.00
2023-01-26T15:16:03.890Z,1.87
2023-01-26T15:18:34.848Z,1.60
2023-01-26T15:21:23.768Z,1.47
2023-01-26T15:23:56.287Z,1.67
2023-01-26T15:26:32.003Z,1.20
2023-01-26T15:29:07.634Z,2.10
2023-01-26T15:31:39.989Z,1.60
2023-01-26T15:34:36.728Z,1.56
2023-01-26T15:37:25.979Z,1.93
2023-01-26T15:43:59.582Z,1.50
2023-01-26T15:46:29.261Z,1.07
2023-01-26T15:48:59.151Z,1.70
2023-01-26T15:51:29.095Z,1.23
2023-01-26T15:53:58.900Z,1.40
2023-01-26T15:56:28.662Z,1.77
2023-01-26T15:58:58.963Z,1.57
2023-01-26T16:01:30.326Z,1.50
2023-01-26T16:04:00.156Z,1.43
2023-01-26T16:06:32.773Z,1.65
2023-01-26T16:09:02.556Z,1.57
2023-01-26T16:11:35.491Z,1.83
2023-01-26T16:14:08.261Z,1.80
2023-01-26T16:16:38.225Z,2.20
2023-01-26T16:19:08.865Z,1.60
2023-01-26T16:21:41.123Z,2.53
2023-01-26T16:24:12.171Z,1.92
2023-01-26T16:26:41.960Z,2.23
2023-01-26T16:29:11.487Z,2.15
2023-01-26T16:31:41.369Z,2.30
2023-01-26T16:34:11.731Z,2.25
2023-01-26T16:36:41.487Z,2.23
2023-01-26T16:39:11.355Z,2.43
2023-01-26T16:41:41.105Z,2.07
2023-01-26T16:44:17.374Z,2.70
2023-01-26T16:46:47.137Z,2.15
2023-01-26T16:49:17.432Z,1.97
2023-01-26T16:51:47.442Z,2.00
2023-01-26T16:54:17.181Z,1.54
2023-01-26T16:56:46.994Z,2.23
2023-01-26T16:59:17.056Z,1.60
2023-01-26T17:01:46.733Z,1.95
2023-01-26T17:04:16.319Z,2.50
2023-01-26T17:06:46.149Z,3.17
2023-01-26T17:09:16.212Z,1.95
2023-01-26T17:11:46.088Z,1.80
2023-01-26T17:14:16.405Z,1.70
2023-01-26T17:16:46.314Z,1.77
2023-01-26T17:19:16.505Z,1.47
2023-01-26T17:21:46.336Z,1.70
2023-01-26T17:24:15.958Z,2.00
2023-01-26T17:26:45.846Z,1.80
2023-01-26T17:29:15.658Z,1.63
2023-01-26T17:31:45.594Z,2.20
2023-01-26T17:34:16.461Z,2.08
2023-01-26T17:36:46.364Z,1.73
2023-01-26T17:39:17.879Z,2.10
2023-01-26T17:41:47.719Z,2.63
2023-01-26T17:44:17.560Z,1.34
2023-01-26T17:46:47.498Z,1.27
2023-01-26T17:49:17.428Z,1.60
2023-01-26T17:51:47.697Z,1.40
2023-01-26T17:54:18.066Z,1.30
2023-01-26T17:56:47.831Z,1.63
2023-01-26T17:59:17.696Z,1.70
2023-01-26T18:01:47.555Z,1.30
2023-01-26T18:04:17.356Z,1.30
2023-01-26T18:06:46.890Z,1.20
2023-01-26T18:09:16.705Z,1.13
2023-01-26T18:11:46.497Z,1.40
2023-01-26T18:14:16.137Z,1.70
2023-01-26T18:16:45.979Z,1.63
2023-01-26T18:19:15.773Z,1.37
2023-01-26T18:21:45.524Z,1.90
2023-01-26T18:24:15.030Z,2.08
2023-01-26T18:26:45.082Z,1.80
2023-01-26T18:29:16.755Z,1.87
2023-01-26T18:31:47.969Z,1.87
2023-01-26T18:34:17.850Z,1.50
2023-01-26T18:36:47.643Z,1.67
2023-01-26T18:39:17.524Z,1.90
2023-01-26T18:41:47.450Z,1.60
2023-01-26T18:44:18.339Z,2.37
2023-01-26T18:46:48.084Z,1.83
2023-01-26T18:49:18.409Z,1.97
2023-01-26T18:51:52.150Z,1.70
2023-01-26T18:54:21.975Z,1.80
2023-01-26T18:56:51.788Z,1.77
2023-01-26T18:59:21.545Z,1.90
2023-01-26T19:01:51.436Z,2.17
2023-01-26T19:04:21.225Z,2.07
2023-01-26T19:06:51.141Z,1.90
2023-01-26T19:09:21.344Z,2.27
2023-01-26T19:11:52.889Z,2.10
2023-01-26T19:14:23.198Z,1.77
2023-01-26T19:16:53.109Z,2.40
2023-01-26T19:19:23.135Z,1.87
2023-01-26T19:21:53.044Z,2.17
2023-01-26T19:24:23.054Z,2.67
2023-01-26T19:26:52.920Z,1.87
2023-01-26T19:29:22.985Z,1.67
2023-01-26T19:31:52.828Z,1.67
2023-01-26T19:34:23.043Z,2.37
2023-01-26T19:36:52.882Z,2.83
2023-01-26T19:39:22.709Z,2.07
2023-01-26T19:41:52.486Z,2.90
2023-01-26T19:44:22.195Z,2.45
2023-01-26T19:46:53.595Z,2.70
2023-01-26T19:49:23.435Z,3.20
2023-01-26T19:51:53.895Z,3.20
2023-01-26T19:54:23.396Z,2.13
2023-01-26T19:56:53.165Z,2.67
2023-01-26T19:59:22.923Z,2.13
2023-01-26T20:01:52.671Z,2.33
2023-01-26T20:04:22.200Z,2.13
2023-01-26T20:06:52.020Z,2.17
2023-01-26T20:09:21.799Z,1.97
2023-01-26T20:11:52.545Z,2.17
2023-01-26T20:14:22.659Z,1.80
2023-01-26T20:16:52.357Z,2.20
2023-01-26T20:19:22.132Z,1.90
2023-01-26T20:21:51.908Z,2.50
2023-01-26T20:24:22.224Z,2.17
2023-01-26T20:26:53.093Z,2.17
2023-01-26T20:29:23.181Z,2.67
2023-01-26T20:31:53.261Z,2.50
2023-01-26T20:34:23.197Z,2.55
2023-01-26T20:36:54.648Z,2.47
2023-01-26T20:39:25.228Z,2.45
2023-01-26T20:41:55.815Z,2.37
2023-01-26T20:44:25.511Z,2.13
2023-01-26T20:46:55.571Z,2.70
2023-01-26T20:49:25.468Z,2.50
2023-01-26T20:51:55.231Z,2.00
2023-01-26T20:54:25.247Z,2.20
2023-01-26T20:56:55.034Z,2.63
2023-01-26T20:59:24.809Z,2.13
2023-01-26T21:01:54.331Z,2.10
2023-01-26T21:04:24.113Z,2.47
2023-01-26T21:06:55.256Z,2.20
2023-01-26T21:09:25.308Z,1.93
2023-01-26T21:11:55.084Z,2.13
2023-01-26T21:14:24.552Z,2.20
2023-01-26T21:16:55.708Z,1.95
2023-01-26T21:19:25.637Z,2.37
2023-01-26T21:21:55.444Z,2.67
2023-01-26T21:24:25.231Z,2.15
2023-01-26T21:26:54.968Z,1.87
2023-01-26T21:29:24.800Z,2.13
2023-01-26T21:31:54.707Z,2.43
2023-01-26T21:34:24.385Z,2.47
2023-01-26T21:36:54.204Z,2.00
2023-01-26T21:39:23.982Z,2.73
2023-01-26T21:41:56.722Z,2.57
2023-01-26T21:44:28.315Z,2.15
2023-01-26T21:47:00.558Z,2.13
2023-01-26T21:49:31.308Z,1.90
2023-01-26T21:52:18.684Z,3.00
2023-01-26T21:54:48.751Z,3.10
2023-01-26T21:57:36.264Z,2.30
2023-01-26T22:00:07.432Z,2.10
2023-01-26T22:02:37.266Z,2.60
2023-01-26T22:05:08.798Z,2.40
2023-01-26T22:07:38.576Z,2.37
2023-01-26T22:10:11.151Z,2.33
2023-01-26T22:12:41.109Z,2.37
2023-01-26T22:15:11.382Z,2.54
2023-01-26T22:17:41.442Z,2.87
2023-01-26T22:20:13.340Z,2.92
2023-01-26T22:22:43.447Z,2.80
2023-01-26T22:25:13.381Z,2.33
2023-01-26T22:27:43.310Z,2.57
2023-01-26T22:30:15.880Z,2.50
2023-01-26T22:32:45.747Z,3.07
2023-01-26T22:35:16.578Z,2.12
2023-01-26T22:37:46.421Z,2.00
2023-01-26T22:40:16.456Z,2.10
2023-01-26T22:42:46.210Z,2.43
2023-01-26T22:45:15.849Z,3.03
2023-01-26T22:47:46.308Z,3.17
2023-01-26T22:50:18.268Z,2.80
2023-01-26T22:52:48.196Z,3.43
2023-01-26T22:55:17.964Z,2.55
2023-01-26T22:57:47.736Z,2.40
2023-01-26T23:00:17.784Z,3.10
2023-01-26T23:02:47.715Z,2.47
2023-01-26T23:05:17.930Z,2.80
2023-01-26T23:07:47.669Z,2.83
2023-01-26T23:10:17.383Z,2.47
2023-01-26T23:12:47.127Z,2.10
2023-01-26T23:15:16.993Z,2.60
2023-01-26T23:17:48.046Z,2.37
2023-01-26T23:20:19.758Z,2.40
2023-01-26T23:22:49.745Z,2.53
2023-01-26T23:25:36.850Z,2.33
2023-01-26T23:28:08.402Z,2.73
2023-01-26T23:30:38.224Z,2.20
2023-01-26T23:33:08.030Z,2.90
2023-01-26T23:35:38.747Z,2.43
2023-01-26T23:38:09.523Z,2.20
2023-01-26T23:40:39.834Z,1.93
2023-01-26T23:43:16.503Z,2.47
2023-01-26T23:45:43.282Z,2.50
2023-01-26T23:48:13.352Z,2.77
2023-01-26T23:50:43.794Z,2.90
2023-01-26T23:53:13.831Z,2.63
2023-01-26T23:55:44.267Z,2.55
2023-01-26T23:58:14.014Z,2.35
